createdAt,value
2019-02-08T13:39:11.188Z,97559.00
2019-02-08T13:42:06.157Z,97559.00
2019-02-08T13:45:00.909Z,97553.00
2019-02-08T13:47:56.213Z,97548.00
2019-02-08T13:53:30.321Z,97551.00
2019-02-08T13:56:25.116Z,97558.00
2019-02-08T13:59:20.029Z,97554.00
2019-02-08T14:02:14.747Z,97556.00
2019-02-08T14:05:10.206Z,97547.00
2019-02-08T14:08:04.499Z,97544.00
2019-02-08T14:10:59.357Z,97536.00
2019-02-08T14:13:54.249Z,97540.00
2019-02-08T14:16:49.132Z,97542.00
2019-02-08T14:19:43.850Z,97550.00
2019-02-08T14:22:38.510Z,97537.00
2019-02-08T14:25:33.653Z,97530.00
2019-02-08T14:28:29.583Z,97535.00
2019-02-08T17:40:16.244Z,97509.00
2019-02-08T17:43:10.438Z,97498.00
2019-02-08T17:46:04.917Z,97500.00
2019-02-08T17:48:59.855Z,97511.00
2019-02-08T17:51:54.411Z,97513.00
2019-02-08T17:54:49.323Z,97521.00
2019-02-08T17:57:44.132Z,97518.00
2019-02-08T18:00:52.511Z,97513.00
2019-02-08T18:03:47.439Z,97521.00
2019-02-08T18:06:42.170Z,97524.00
2019-02-08T18:09:36.844Z,97528.00
2019-02-08T18:12:32.567Z,97526.00
2019-02-08T18:15:27.617Z,97529.00
2019-02-08T18:18:25.176Z,97515.00
2019-02-08T18:21:19.815Z,97516.00
2019-02-08T18:24:14.604Z,97501.00
2019-02-08T18:27:09.442Z,97502.00
2019-02-08T18:30:04.512Z,97503.00
2019-02-08T18:32:59.582Z,97511.00
2019-02-08T18:35:56.394Z,97504.00
2019-02-08T18:38:53.736Z,97499.00
2019-02-08T18:41:50.051Z,97499.00
2019-02-08T18:44:44.991Z,97495.00
2019-02-08T18:47:39.867Z,97471.00
2019-02-08T18:50:40.545Z,97488.00
2019-02-08T18:53:34.872Z,97492.00
2019-02-08T18:56:29.593Z,97490.00
2019-02-08T18:59:23.989Z,97481.00
2019-02-08T19:02:18.784Z,97478.00
2019-02-08T19:05:13.826Z,97479.00
2019-02-08T19:08:09.090Z,97484.00
2019-02-08T19:11:03.336Z,97488.00
2019-02-08T19:13:57.932Z,97483.00
2019-02-08T19:16:52.795Z,97480.00
2019-02-08T19:19:47.140Z,97483.00
2019-02-08T19:22:41.827Z,97475.00
2019-02-08T19:25:39.448Z,97473.00
2019-02-08T19:28:33.898Z,97465.00
2019-02-08T19:31:28.404Z,97470.00
2019-02-08T19:34:22.983Z,97475.00
2019-02-08T19:37:17.831Z,97470.00
2019-02-08T19:40:15.864Z,97464.00
2019-02-08T19:43:10.253Z,97462.00
2019-02-08T19:46:05.269Z,97459.00
2019-02-08T19:49:00.161Z,97452.00
2019-02-08T19:51:55.112Z,97454.00
2019-02-08T19:54:49.979Z,97456.00
2019-02-08T19:57:44.848Z,97448.00
2019-02-08T20:00:39.980Z,97445.00
2019-02-08T20:03:35.101Z,97444.00
2019-02-08T20:06:29.744Z,97442.00
2019-02-08T20:09:24.702Z,97448.00
2019-02-08T20:14:49.688Z,97451.00
2019-02-08T20:17:44.446Z,97447.00
2019-02-08T20:20:39.148Z,97448.00
2019-02-08T20:23:36.073Z,97447.00
2019-02-08T20:26:30.764Z,97455.00
2019-02-08T20:29:25.620Z,97445.00
2019-02-08T20:32:20.224Z,97447.00
2019-02-08T20:35:18.271Z,97450.00
2019-02-08T20:38:12.425Z,97444.00
2019-02-08T20:41:06.984Z,97451.00
2019-02-08T20:44:01.411Z,97449.00
2019-02-08T20:46:55.931Z,97446.00
2019-02-08T20:49:50.297Z,97450.00
2019-02-08T20:52:44.646Z,97446.00
2019-02-08T20:55:39.392Z,97444.00
2019-02-08T20:58:34.724Z,97444.00
2019-02-08T21:01:29.296Z,97450.00
2019-02-08T21:04:24.299Z,97448.00
2019-02-08T21:07:19.304Z,97443.00
2019-02-08T21:10:14.085Z,97433.00
2019-02-08T21:13:10.220Z,97438.00
2019-02-08T21:16:04.982Z,97432.00
2019-02-08T21:18:59.711Z,97427.00
2019-02-08T21:21:54.152Z,97425.00
2019-02-08T21:24:48.854Z,97423.00
2019-02-08T21:27:43.492Z,97422.00
2019-02-08T21:30:38.020Z,97422.00
2019-02-08T21:33:33.727Z,97424.00
2019-02-08T21:36:28.704Z,97423.00
2019-02-08T21:39:23.162Z,97416.00
2019-02-08T21:42:17.681Z,97414.00
2019-02-08T21:45:19.200Z,97412.00
2019-02-08T21:48:15.037Z,97404.00
2019-02-08T21:51:09.612Z,97391.00
2019-02-08T21:54:04.512Z,97395.00
2019-02-08T21:56:59.063Z,97388.00
2019-02-08T21:59:54.813Z,97394.00
2019-02-08T22:02:49.390Z,97389.00
2019-02-08T22:05:54.125Z,97392.00
2019-02-08T22:08:48.965Z,97387.00
2019-02-08T22:11:43.502Z,97391.00
2019-02-08T22:14:37.997Z,97386.00
2019-02-08T22:17:32.803Z,97396.00
2019-02-08T22:20:27.507Z,97392.00
2019-02-08T22:23:23.383Z,97390.00
2019-02-08T22:26:18.336Z,97385.00
2019-02-08T22:29:14.323Z,97383.00
2019-02-08T22:32:09.270Z,97377.00
2019-02-08T22:35:04.165Z,97379.00
2019-02-08T22:37:58.867Z,97377.00
2019-02-08T22:40:53.364Z,97370.00
2019-02-08T22:43:48.059Z,97364.00
2019-02-08T22:46:42.799Z,97360.00
2019-02-08T22:49:37.795Z,97364.00
2019-02-08T22:52:32.504Z,97358.00
2019-02-08T22:55:29.858Z,97350.00
2019-02-08T22:58:24.519Z,97350.00
2019-02-08T23:01:36.438Z,97342.00
2019-02-08T23:04:31.431Z,97339.00
2019-02-08T23:07:25.703Z,97333.00
2019-02-08T23:10:20.437Z,97329.00
2019-02-08T23:13:15.209Z,97327.00
2019-02-08T23:16:10.184Z,97334.00
2019-02-08T23:19:04.808Z,97327.00
2019-02-08T23:21:59.129Z,97328.00
2019-02-08T23:24:53.639Z,97324.00
2019-02-08T23:27:48.287Z,97331.00
2019-02-08T23:30:42.698Z,97328.00
2019-02-08T23:33:37.442Z,97323.00
2019-02-08T23:36:32.344Z,97319.00
2019-02-08T23:39:26.858Z,97307.00
2019-02-08T23:42:21.419Z,97308.00
2019-02-08T23:45:16.039Z,97307.00
2019-02-08T23:48:10.641Z,97300.00
2019-02-08T23:51:05.183Z,97290.00
2019-02-08T23:54:00.162Z,97291.00
2019-02-08T23:56:55.173Z,97286.00
2019-02-08T23:59:50.198Z,97297.00
